createdAt,value
2022-12-23T00:04:56.257Z,82.35
2022-12-23T00:10:02.246Z,81.43
2022-12-23T00:15:07.765Z,91.70
2022-12-23T00:20:14.733Z,84.60
2022-12-23T00:25:20.272Z,96.20
2022-12-23T00:30:25.859Z,98.53
2022-12-23T00:35:33.723Z,96.07
2022-12-23T00:40:57.649Z,116.38
2022-12-23T00:46:09.136Z,101.72
2022-12-23T00:51:17.913Z,113.43
2022-12-23T00:56:23.561Z,110.22
2022-12-23T01:01:47.515Z,102.07
2022-12-23T01:06:53.040Z,102.72
2022-12-23T01:11:58.500Z,105.65
2022-12-23T01:17:06.706Z,144.32
2022-12-23T01:22:12.616Z,125.10
2022-12-23T01:27:21.510Z,96.90
2022-12-23T01:32:29.626Z,109.13
2022-12-23T01:37:35.489Z,107.20
2022-12-23T01:42:48.205Z,141.90
2022-12-23T01:48:14.523Z,130.60
2022-12-23T01:53:24.711Z,118.27
2022-12-23T01:58:34.518Z,116.80
2022-12-23T02:03:46.594Z,114.88
2022-12-23T02:09:10.289Z,98.35
2022-12-23T02:14:53.816Z,103.68
2022-12-23T02:20:02.362Z,93.88
2022-12-23T02:25:22.337Z,87.90
2022-12-23T02:30:28.061Z,73.10
2022-12-23T02:35:51.451Z,81.27
2022-12-23T02:40:57.182Z,74.70
2022-12-23T02:46:05.322Z,74.85
2022-12-23T02:51:12.404Z,89.30
2022-12-23T02:56:18.721Z,72.15
2022-12-23T03:01:27.250Z,84.30
2022-12-23T03:06:35.785Z,84.32
2022-12-23T03:11:47.668Z,72.05
2022-12-23T03:16:59.995Z,86.80
2022-12-23T03:22:12.765Z,85.82
2022-12-23T03:27:18.701Z,73.10
2022-12-23T03:32:25.570Z,56.07
2022-12-23T03:37:32.941Z,53.40
2022-12-23T03:42:40.356Z,61.60
2022-12-23T03:48:05.711Z,59.92
2022-12-23T03:53:21.528Z,39.33
2022-12-23T03:58:27.433Z,48.30
2022-12-23T04:03:40.988Z,51.13
2022-12-23T04:08:47.507Z,54.78
2022-12-23T04:13:53.471Z,53.03
2022-12-23T04:18:59.323Z,54.58
2022-12-23T04:24:04.925Z,49.60
2022-12-23T04:29:10.797Z,44.88
2022-12-23T04:34:16.581Z,47.07
2022-12-23T04:39:21.926Z,31.08
2022-12-23T04:44:27.331Z,33.67
2022-12-23T04:49:33.963Z,38.65
2022-12-23T04:54:45.761Z,39.78
2022-12-23T04:59:52.968Z,18.92
2022-12-23T05:10:03.873Z,35.25
2022-12-23T05:15:10.240Z,25.60
2022-12-23T05:20:15.956Z,30.48
2022-12-23T05:25:21.801Z,22.13
2022-12-23T05:30:28.376Z,32.10
2022-12-23T05:35:34.098Z,21.55
2022-12-23T05:40:39.652Z,25.83
2022-12-23T05:45:45.738Z,28.90
2022-12-23T05:50:55.109Z,24.25
2022-12-23T05:56:00.868Z,23.38
2022-12-23T06:01:06.869Z,31.70
2022-12-23T06:06:12.581Z,31.25
2022-12-23T06:11:18.263Z,33.53
2022-12-23T06:16:26.943Z,28.50
2022-12-23T06:21:32.427Z,23.25
2022-12-23T06:26:38.213Z,24.58
2022-12-23T06:31:43.917Z,28.80
2022-12-23T06:36:50.091Z,24.50
2022-12-23T06:41:55.752Z,23.23
2022-12-23T06:47:01.286Z,26.47
2022-12-23T06:52:07.293Z,19.77
2022-12-23T06:57:13.327Z,20.95
2022-12-23T07:02:19.237Z,27.65
2022-12-23T07:12:30.085Z,26.02
2022-12-23T07:17:35.826Z,23.33
2022-12-23T07:22:41.156Z,23.05
2022-12-23T07:27:46.855Z,25.40
2022-12-23T07:32:53.321Z,18.23
2022-12-23T07:37:59.560Z,21.35
2022-12-23T07:43:05.402Z,33.55
2022-12-23T07:48:12.048Z,25.87
2022-12-23T07:53:17.983Z,24.17
2022-12-23T07:58:23.784Z,21.23
2022-12-23T08:03:29.498Z,23.10
2022-12-23T08:08:35.616Z,24.33
2022-12-23T08:18:46.033Z,35.40
2022-12-23T08:23:51.804Z,29.80
2022-12-23T08:34:03.613Z,31.30
2022-12-23T08:39:10.578Z,28.30
2022-12-23T08:44:16.404Z,38.15
2022-12-23T08:49:22.034Z,21.30
2022-12-23T08:54:28.577Z,23.50
2022-12-23T08:59:34.110Z,26.50
2022-12-23T09:04:39.835Z,28.47
2022-12-23T09:09:45.597Z,16.40
2022-12-23T09:14:51.406Z,21.45
2022-12-23T09:19:56.739Z,17.35
2022-12-23T09:25:05.386Z,25.95
2022-12-23T09:30:11.847Z,18.75
2022-12-23T09:35:17.035Z,25.00
2022-12-23T09:40:23.998Z,34.45
2022-12-23T09:45:48.330Z,41.20
2022-12-23T09:50:54.292Z,27.33
2022-12-23T09:56:03.239Z,27.90
2022-12-23T10:01:27.518Z,29.60
2022-12-23T10:06:33.505Z,30.25
2022-12-23T10:11:42.912Z,39.63
2022-12-23T10:16:49.480Z,50.65
2022-12-23T10:21:59.461Z,37.05
2022-12-23T10:27:27.191Z,36.97
2022-12-23T10:32:46.747Z,30.98
2022-12-23T10:38:18.216Z,45.30
2022-12-23T10:43:40.499Z,41.42
2022-12-23T10:49:04.784Z,41.38
2022-12-23T10:54:15.592Z,40.80
2022-12-23T10:59:24.631Z,55.75
2022-12-23T11:05:02.310Z,46.28
2022-12-23T11:16:25.872Z,46.03
2022-12-23T11:28:00.218Z,42.25
2022-12-23T11:34:26.570Z,45.33
2022-12-23T11:45:10.465Z,55.08
2022-12-23T11:55:30.532Z,51.72
2022-12-23T12:00:55.600Z,45.50
2022-12-23T12:06:02.554Z,43.58
2022-12-23T12:11:10.865Z,52.92
2022-12-23T12:16:23.039Z,48.92
2022-12-23T12:21:31.403Z,52.45
2022-12-23T12:26:40.582Z,50.78
2022-12-23T12:31:54.515Z,43.83
2022-12-23T12:37:06.347Z,41.40
2022-12-23T12:42:20.036Z,50.17
2022-12-23T12:47:52.727Z,47.67
2022-12-23T12:52:55.598Z,44.85
2022-12-23T12:58:04.240Z,42.72
2022-12-23T13:03:25.721Z,41.22
2022-12-23T13:08:34.549Z,56.50
2022-12-23T13:13:56.130Z,65.18
2022-12-23T13:19:13.720Z,46.75
2022-12-23T13:24:19.460Z,53.88
2022-12-23T13:30:21.019Z,61.40
2022-12-23T13:36:34.275Z,55.63
2022-12-23T13:41:46.872Z,57.38
2022-12-23T13:58:53.614Z,45.15
2022-12-23T14:04:01.800Z,48.30
2022-12-23T14:09:07.393Z,41.05
2022-12-23T14:14:21.300Z,43.60
2022-12-23T14:19:36.554Z,37.90
2022-12-23T14:25:00.528Z,44.78
2022-12-23T14:30:24.902Z,37.85
2022-12-23T14:35:38.591Z,41.15
2022-12-23T14:41:00.777Z,46.95
2022-12-23T14:46:08.164Z,51.72
2022-12-23T14:51:17.052Z,47.22
2022-12-23T14:56:24.263Z,43.85
2022-12-23T15:01:39.585Z,44.60
2022-12-23T15:06:47.091Z,43.60
2022-12-23T15:11:57.851Z,50.45
2022-12-23T15:17:16.692Z,54.92
2022-12-23T15:22:28.506Z,39.10
2022-12-23T15:27:38.919Z,37.60
2022-12-23T15:32:49.436Z,42.00
2022-12-23T15:37:55.300Z,47.97
2022-12-23T15:43:00.960Z,38.15
2022-12-23T15:54:55.249Z,41.35
2022-12-23T16:00:29.854Z,39.30
2022-12-23T16:06:52.127Z,42.28
2022-12-23T16:11:44.536Z,50.25
2022-12-23T16:22:46.610Z,45.58
2022-12-23T16:27:57.996Z,54.88
2022-12-23T16:33:11.200Z,59.28
2022-12-23T16:38:17.399Z,48.50
2022-12-23T16:48:28.636Z,51.20
2022-12-23T16:53:34.670Z,49.95
2022-12-23T16:58:40.293Z,57.08
2022-12-23T17:03:45.641Z,47.13
2022-12-23T17:08:51.586Z,50.85
2022-12-23T17:14:03.453Z,46.30
2022-12-23T17:19:11.241Z,52.13
2022-12-23T17:24:27.094Z,53.53
2022-12-23T17:29:32.368Z,51.30
2022-12-23T17:34:37.880Z,51.73
2022-12-23T17:39:44.365Z,52.77
2022-12-23T17:49:54.584Z,49.13
2022-12-23T17:54:59.969Z,61.00
2022-12-23T18:00:05.536Z,53.93
2022-12-23T18:05:29.936Z,49.17
2022-12-23T18:10:38.769Z,57.72
2022-12-23T18:15:45.588Z,59.78
2022-12-23T18:20:53.870Z,53.17
2022-12-23T18:26:00.082Z,49.33
2022-12-23T18:31:06.309Z,59.60
2022-12-23T18:41:16.893Z,56.25
2022-12-23T18:46:22.784Z,51.60
2022-12-23T18:51:28.670Z,58.03
2022-12-23T18:56:34.132Z,50.50
2022-12-23T19:01:39.872Z,54.35
2022-12-23T19:06:46.268Z,55.67
2022-12-23T19:16:56.765Z,51.53
2022-12-23T19:22:02.425Z,54.70
2022-12-23T19:27:08.289Z,53.87
2022-12-23T19:32:13.750Z,62.07
2022-12-23T19:37:18.956Z,57.73
2022-12-23T19:42:24.285Z,60.70
2022-12-23T19:47:30.061Z,60.78
2022-12-23T19:52:36.031Z,53.53
2022-12-23T19:57:41.847Z,61.95
2022-12-23T20:02:47.193Z,59.70
2022-12-23T20:07:52.957Z,59.60
2022-12-23T20:12:58.700Z,65.70
2022-12-23T20:18:04.643Z,53.10
2022-12-23T20:23:10.378Z,52.15
2022-12-23T20:28:15.814Z,63.80
2022-12-23T20:33:21.567Z,56.17
2022-12-23T20:38:27.439Z,61.87
2022-12-23T20:43:33.066Z,59.07
2022-12-23T20:48:38.776Z,60.50
2022-12-23T20:53:44.388Z,55.00
2022-12-23T20:58:56.405Z,56.63
2022-12-23T21:04:02.915Z,60.17
2022-12-23T21:09:10.134Z,60.45
2022-12-23T21:14:16.468Z,50.85
2022-12-23T21:19:22.937Z,52.80
2022-12-23T21:24:28.260Z,53.00
2022-12-23T21:29:33.829Z,50.15
2022-12-23T21:34:39.374Z,61.00
2022-12-23T21:39:44.788Z,46.17
2022-12-23T21:44:50.705Z,46.15
2022-12-23T21:49:56.194Z,44.55
2022-12-23T21:55:01.833Z,50.43
2022-12-23T22:00:07.583Z,49.87
2022-12-23T22:05:13.411Z,36.08
2022-12-23T22:10:18.972Z,45.83
2022-12-23T22:15:24.191Z,40.03
2022-12-23T22:20:29.878Z,42.73
2022-12-23T22:25:35.110Z,50.92
2022-12-23T22:30:41.262Z,41.53
2022-12-23T22:35:47.153Z,51.63
2022-12-23T22:40:55.955Z,59.22
2022-12-23T22:46:03.766Z,44.08
2022-12-23T22:51:29.528Z,51.53
2022-12-23T22:56:34.839Z,42.65
2022-12-23T23:01:40.868Z,46.37
2022-12-23T23:06:46.733Z,60.83
2022-12-23T23:11:53.084Z,52.13
2022-12-23T23:16:58.376Z,63.00
2022-12-23T23:22:03.795Z,63.13
2022-12-23T23:27:09.693Z,58.35
2022-12-23T23:32:15.583Z,59.38
2022-12-23T23:37:21.329Z,67.57
2022-12-23T23:42:27.010Z,64.67
2022-12-23T23:47:35.935Z,67.80
2022-12-23T23:52:41.703Z,74.75
2022-12-23T23:57:47.171Z,56.23
